Richelieu/Messier Airport

CRM3 · Quebec, Canada

2 octobre 2022

Temps Code Temps Temp. Vue Base cloud Vent METAR/SPECI
08:00
V
5 °C 9 mi - 030° 030° 13 kt METAR CYHU 021200Z AUTO 03013KT 9SM CLR 05/01 A3039 RMK SLP293
07:00
V
3 °C 9 mi - 020° 020° 11 kt METAR CYHU 021100Z AUTO 02011KT 9SM CLR 03/00 A3038 RMK SLP289
06:00
V
4 °C 9 mi - 020° 020° 9 kt METAR CYHU 021000Z AUTO 02009KT 9SM CLR 04/00 A3036 RMK SLP284
05:00
V
4 °C 9 mi - 020° 020° 10 kt METAR CYHU 020900Z AUTO 02010KT 9SM CLR 04/00 A3034 RMK SLP277
04:00
V
5 °C 9 mi - 020° 020° 12 kt METAR CYHU 020800Z AUTO 02012KT 9SM CLR 05/00 A3032 RMK SLP271
03:00
V
6 °C 9 mi - 020° 020° 12 - 17 kt METAR CYHU 020700Z AUTO 02012G17KT 9SM CLR 06/01 A3032 RMK SLP271
02:00
V
6 °C 9 mi - 020° 020° 12 - 18 kt METAR CYHU 020600Z AUTO 02012G18KT 9SM CLR 06/01 A3032 RMK SLP269
01:00
V
7 °C 9 mi - 020° 020° 13 kt METAR CYHU 020500Z AUTO 02013KT 9SM CLR 07/02 A3031 RMK SLP265
00:00
V
8 °C 9 mi - 030° 030° 11 - 18 kt METAR CYHU 020400Z AUTO 03011G18KT 9SM CLR 08/03 A3030 RMK SLP263

1 octobre 2022

Temps Code Temps Temp. Vue Base cloud Vent METAR/SPECI
23:00
V
8 °C 9 mi - 040° 040° 8 kt METAR CYHU 020300Z AUTO 04008KT 9SM CLR 08/03 A3028 RMK SLP257
22:00
V
9 °C 9 mi - 030° 030° 8 kt METAR CYHU 020200Z AUTO 03008KT 9SM CLR 09/04 A3027 RMK SLP252
21:00
V
11 °C 9 mi - 030° 030° 10 kt METAR CYHU 020100Z AUTO 03010KT 9SM CLR 11/06 A3026 RMK SLP249
20:00
V
11 °C 9 mi - 040° 040° 5 kt METAR CYHU 020000Z AUTO 04005KT 9SM CLR 11/08 A3024 RMK SLP242
19:00
V
13 °C 9 mi - 050° 050° 6 kt METAR CYHU 012300Z AUTO 05006KT 9SM FEW040 13/08 A3021 RMK SLP234
18:00
V
14 °C 9 mi 3.200 ft 050° 050° 8 - 15 kt METAR CYHU 012200Z AUTO 05008G15KT 9SM OVC032 14/09 A3020 RMK SLP229
17:00
V
16 °C 9 mi - 020° 020° 10 kt METAR CYHU 012100Z AUTO 02010KT 9SM FEW036 16/10 A3017 RMK SLP220
16:00
V
17 °C 9 mi - 040° 040° 7 kt METAR CYHU 012000Z AUTO 04007KT 010V070 9SM CLR 17/09 A3016 RMK SLP215 DENSITY ALT 100FT
15:00
V
17 °C 9 mi - 010° 010° 10 kt METAR CYHU 011900Z AUTO 01010KT 9SM CLR 17/10 A3015 RMK SLP213 DENSITY ALT 100FT
14:00
V
17 °C 9 mi - 050° 050° 4 kt METAR CYHU 011800Z AUTO 05004KT 010V070 9SM CLR 17/09 A3016 RMK SLP216 DENSITY ALT 100FT
13:44
V
16 °C 9 mi - 010° 010° 5 kt METAR CYHU 011744Z AUTO 01005KT 350V080 9SM CLR 16/08 A3017 RMK SLP218
13:32
I
16 °C 2½ mi - Var Var 4 kt METAR CYHU 011732Z AUTO VRB04KT 2 1/2SM HZ CLR 16/08 A3017 RMK SLP219
13:00
V
15 °C 9 mi - 050° 050° 4 kt METAR CYHU 011700Z AUTO 05004KT 350V080 9SM CLR 15/08 A3018 RMK SLP223
12:00
V
14 °C 9 mi - 030° 030° 3 kt METAR CYHU 011600Z AUTO 03003KT 9SM CLR 14/08 A3018 RMK SLP222
11:00
V
13 °C 9 mi - Var 000° 0 kt METAR CYHU 011500Z AUTO 00000KT 9SM CLR 13/08 A3019 RMK SLP227
10:00
V
11 °C 9 mi - Var Var 2 kt METAR CYHU 011400Z AUTO VRB02KT 9SM CLR 11/09 A3020 RMK SLP228
09:00
V
9 °C 9 mi - 140° 140° 4 kt METAR CYHU 011300Z AUTO 14004KT 9SM CLR 09/07 A3019 RMK SLP226
08:00
V
7 °C 9 mi - Var 000° 0 kt METAR CYHU 011200Z AUTO 00000KT 9SM CLR 07/06 A3018 RMK SLP223
07:00
V
6 °C 9 mi - 150° 150° 3 kt METAR CYHU 011100Z AUTO 15003KT 9SM CLR 06/05 A3018 RMK SLP223
06:00
V
6 °C 9 mi - 150° 150° 2 kt METAR CYHU 011000Z AUTO 15002KT 9SM CLR 06/05 A3017 RMK SLP218
05:00
V
6 °C 9 mi - 110° 110° 2 kt METAR CYHU 010900Z AUTO 11002KT 9SM CLR 06/05 A3015 RMK SLP212
04:00
V
7 °C 9 mi - 190° 190° 3 kt METAR CYHU 010800Z AUTO 19003KT 9SM CLR 07/06 A3015 RMK SLP214
03:00
V
8 °C 9 mi - 160° 160° 3 kt METAR CYHU 010700Z AUTO 16003KT 9SM CLR 08/06 A3016 RMK SLP217
02:00
V
7 °C 9 mi - 170° 170° 3 kt METAR CYHU 010600Z AUTO 17003KT 9SM CLR 07/06 A3018 RMK SLP223
01:00
V
8 °C 9 mi - Var 000° 0 kt METAR CYHU 010500Z AUTO 00000KT 9SM CLR 08/07 A3018 RMK SLP223
00:00
V
9 °C 9 mi - 170° 170° 3 kt METAR CYHU 010400Z AUTO 17003KT 9SM CLR 09/06 A3019 RMK SLP226

30 septembre 2022

Temps Code Temps Temp. Vue Base cloud Vent METAR/SPECI
23:00
V
10 °C 9 mi - 190° 190° 5 kt METAR CYHU 010300Z AUTO 19005KT 9SM CLR 10/07 A3019 RMK SLP227
22:00
V
10 °C 9 mi - 170° 170° 4 kt METAR CYHU 010200Z AUTO 17004KT 9SM CLR 10/07 A3019 RMK SLP227
21:00
V
12 °C 9 mi - 200° 200° 6 kt METAR CYHU 010100Z AUTO 20006KT 9SM CLR 12/07 A3020 RMK SLP229
20:00
V
12 °C 9 mi - 190° 190° 5 kt METAR CYHU 010000Z AUTO 19005KT 9SM CLR 12/05 A3021 RMK SLP231
19:00
V
14 °C 9 mi - 210° 210° 5 kt METAR CYHU 302300Z AUTO 21005KT 9SM CLR 14/03 A3021 RMK SLP233
18:00
V
15 °C 9 mi - 220° 220° 6 kt METAR CYHU 302200Z AUTO 22006KT 9SM CLR 15/02 A3021 RMK SLP233
17:00
V
17 °C 9 mi - 240° 240° 8 kt METAR CYHU 302100Z AUTO 24008KT 9SM CLR 17/03 A3023 RMK SLP238
16:00
V
17 °C 9 mi - 230° 230° 8 kt METAR CYHU 302000Z AUTO 23008KT 190V250 9SM CLR 17/04 A3025 RMK SLP245 DENSITY ALT 100FT
15:00
V
17 °C 9 mi - 240° 240° 9 kt METAR CYHU 301900Z AUTO 24009KT 190V260 9SM CLR 17/04 A3026 RMK SLP251
14:00
V
16 °C 9 mi - 220° 220° 10 kt METAR CYHU 301800Z AUTO 22010KT 180V250 9SM CLR 16/06 A3029 RMK SLP261
13:00
V
16 °C 9 mi - 230° 230° 8 kt METAR CYHU 301700Z AUTO 23008KT 200V270 9SM CLR 16/06 A3033 RMK SLP272
12:00
V
15 °C 9 mi - 220° 220° 5 kt METAR CYHU 301600Z AUTO 22005KT 9SM CLR 15/07 A3035 RMK SLP279
11:00
V
13 °C 9 mi - 190° 190° 4 kt METAR CYHU 301500Z AUTO 19004KT 140V270 9SM CLR 13/08 A3037 RMK SLP286
10:00
V
11 °C 9 mi - Var Var 2 kt METAR CYHU 301400Z AUTO VRB02KT 9SM CLR 11/07 A3039 RMK SLP293
09:00
V
9 °C 9 mi - Var Var 2 kt METAR CYHU 301300Z AUTO VRB02KT 9SM CLR 09/06 A3039 RMK SLP293
Données plus anciennes

Nous et des tiers suivons ton comportement sur Internet sur notre site Web à l'aide de cookies. Si tu continues, nous supposons que tu acceptes notre politique en matière de cookies. Apprendre plus